createdAt,value
2017-08-19T00:00:27.263Z,64.11
2017-08-19T00:01:07.719Z,64.01
2017-08-19T00:01:48.176Z,63.92
2017-08-19T00:02:28.621Z,63.53
2017-08-19T00:03:09.076Z,63.92
2017-08-19T00:03:49.531Z,63.82
2017-08-19T00:04:29.987Z,63.73
2017-08-19T00:05:10.437Z,64.11
2017-08-19T00:05:50.893Z,64.11
2017-08-19T00:06:31.355Z,63.92
2017-08-19T00:07:11.812Z,63.82
2017-08-19T00:07:52.268Z,63.82
2017-08-19T00:08:32.723Z,63.43
2017-08-19T00:09:13.177Z,63.73
2017-08-19T00:09:53.618Z,63.73
2017-08-19T00:10:34.072Z,63.53
2017-08-19T00:11:14.529Z,63.82
2017-08-19T00:11:54.985Z,63.82
2017-08-19T00:12:35.446Z,63.92
2017-08-19T00:13:15.900Z,63.82
2017-08-19T00:13:56.354Z,63.92
2017-08-19T00:14:36.812Z,63.82
2017-08-19T00:15:17.275Z,63.82
2017-08-19T00:15:57.725Z,63.82
2017-08-19T00:16:38.180Z,63.82
2017-08-19T00:17:18.646Z,63.82
2017-08-19T00:17:59.093Z,63.53
2017-08-19T00:18:39.574Z,63.73
2017-08-19T00:19:20.015Z,63.53
2017-08-19T00:20:00.472Z,63.73
2017-08-19T00:20:40.937Z,63.53
2017-08-19T00:21:21.395Z,63.53
2017-08-19T00:22:01.847Z,63.82
2017-08-19T00:22:42.308Z,63.92
2017-08-19T00:23:22.765Z,63.82
2017-08-19T00:24:03.217Z,63.92
2017-08-19T00:24:43.673Z,64.01
2017-08-19T00:25:24.122Z,63.92
2017-08-19T00:26:04.560Z,63.82
2017-08-19T00:26:45.020Z,63.82
2017-08-19T00:27:25.478Z,63.82
2017-08-19T00:28:05.940Z,63.92
2017-08-19T00:28:46.396Z,64.01
2017-08-19T00:29:26.847Z,64.11
2017-08-19T00:30:07.329Z,64.11
2017-08-19T00:30:47.780Z,64.11
2017-08-19T00:31:28.238Z,63.63
2017-08-19T00:32:08.686Z,63.82
2017-08-19T00:32:49.157Z,63.92
2017-08-19T00:33:29.593Z,63.92
2017-08-19T00:34:10.052Z,63.6
2017-08-19T00:34:50.596Z,63.4
2017-08-19T00:35:31.055Z,64.08
2017-08-19T00:36:11.502Z,63.5
2017-08-19T00:36:51.955Z,63.89
2017-08-19T00:37:32.418Z,63.98
2017-08-19T00:38:12.872Z,63.89
2017-08-19T00:38:53.318Z,64.08
2017-08-19T00:39:33.778Z,63.98
2017-08-19T00:40:14.242Z,64.08
2017-08-19T00:40:54.695Z,64.08
2017-08-19T00:41:35.146Z,64.08
2017-08-19T00:42:15.584Z,63.5
2017-08-19T00:42:56.037Z,63.89
2017-08-19T00:43:36.484Z,63.79
2017-08-19T00:44:16.937Z,63.82
2017-08-19T00:44:57.396Z,63.69
2017-08-19T00:45:37.849Z,64.08
2017-08-19T00:46:18.303Z,63.98
2017-08-19T00:46:58.755Z,63.82
2017-08-19T00:47:39.206Z,63.53
2017-08-19T00:48:19.675Z,63.43
2017-08-19T00:49:00.121Z,63.63
2017-08-19T00:49:40.572Z,63.53
2017-08-19T00:50:21.029Z,63.63
2017-08-19T00:51:01.499Z,63.63
2017-08-19T00:51:41.946Z,63.63
2017-08-19T00:52:22.400Z,63.53
2017-08-19T00:53:02.860Z,63.82
2017-08-19T00:53:43.315Z,63.24
2017-08-19T00:54:23.779Z,63.14
2017-08-19T00:55:04.225Z,63.14
2017-08-19T00:55:44.686Z,63.34
2017-08-19T00:56:25.139Z,63.24
2017-08-19T00:57:05.589Z,63.34
2017-08-19T00:57:46.045Z,63.24
2017-08-19T00:58:26.497Z,63.24
2017-08-19T00:59:06.957Z,63.43
2017-08-19T00:59:47.419Z,63.43
2017-08-19T01:00:27.883Z,63.43
2017-08-19T01:01:08.340Z,63.43
2017-08-19T01:01:48.798Z,63.43
2017-08-19T01:02:29.256Z,63.34
2017-08-19T01:03:09.717Z,63.43
2017-08-19T01:03:50.169Z,63.34
2017-08-19T01:04:30.622Z,63.34
2017-08-19T01:05:11.092Z,63.24
2017-08-19T01:05:51.553Z,63.34
2017-08-19T01:06:32.014Z,63.53
2017-08-19T01:07:12.478Z,63.43
2017-08-19T01:07:52.939Z,63.24
2017-08-19T01:08:33.375Z,63.34
2017-08-19T01:09:13.820Z,63.24
2017-08-19T01:09:54.269Z,63.24
2017-08-19T01:10:34.716Z,63.43
2017-08-19T01:11:15.174Z,63.14
2017-08-19T01:11:55.685Z,63.14
2017-08-19T01:12:36.153Z,63.34
2017-08-19T01:13:16.600Z,63.34
2017-08-19T01:13:57.057Z,63.34
2017-08-19T01:14:37.508Z,63.34
2017-08-19T01:15:17.961Z,63.27
2017-08-19T01:15:58.429Z,63.24
2017-08-19T01:16:38.867Z,63.24
2017-08-19T01:17:19.321Z,63.14
2017-08-19T01:17:59.781Z,62.95
2017-08-19T01:18:40.225Z,63.14
2017-08-19T01:19:20.696Z,63.24
2017-08-19T01:20:01.152Z,63.14
2017-08-19T01:20:41.614Z,63.14
2017-08-19T01:21:22.070Z,63.24
2017-08-19T01:22:02.519Z,63.34
2017-08-19T01:22:42.973Z,63.34
2017-08-19T01:23:23.430Z,63.63
2017-08-19T01:24:03.891Z,63.63
2017-08-19T01:24:44.346Z,63.66
2017-08-19T01:25:24.804Z,63.63
2017-08-19T01:26:05.257Z,63.46
2017-08-19T01:26:45.709Z,63.27
2017-08-19T01:27:26.162Z,63.24
2017-08-19T01:28:06.618Z,63.63
2017-08-19T01:28:47.064Z,63.37
2017-08-19T01:29:27.501Z,63.34
2017-08-19T01:30:07.967Z,63.43
2017-08-19T01:30:48.407Z,63.43
2017-08-19T01:31:28.862Z,63.14
2017-08-19T01:32:09.392Z,63.56
2017-08-19T01:32:49.846Z,63.14
2017-08-19T01:33:30.295Z,63.46
2017-08-19T01:34:10.778Z,63.18
2017-08-19T01:34:51.240Z,63.18
2017-08-19T01:35:31.698Z,63.14
2017-08-19T01:36:12.157Z,63.14
2017-08-19T01:36:52.620Z,63.14
2017-08-19T01:37:33.073Z,63.18
2017-08-19T01:38:13.525Z,63.14
2017-08-19T01:38:53.979Z,63.14
2017-08-19T01:39:34.450Z,63.05
2017-08-19T01:40:14.903Z,63.37
2017-08-19T01:40:55.381Z,63.14
2017-08-19T01:41:35.817Z,63.14
2017-08-19T01:42:16.288Z,63.14
2017-08-19T01:42:56.754Z,63.14
2017-08-19T01:43:37.215Z,63.05
2017-08-19T01:44:17.656Z,63.34
2017-08-19T01:44:58.098Z,63.14
2017-08-19T01:45:38.550Z,63.34
2017-08-19T01:46:19.013Z,63.34
2017-08-19T01:46:59.467Z,63.34
2017-08-19T01:47:39.912Z,63.43
2017-08-19T01:48:20.362Z,63.34
2017-08-19T01:49:00.821Z,63.08
2017-08-19T01:49:41.280Z,63.34
2017-08-19T01:50:21.733Z,63.43
2017-08-19T01:51:02.194Z,63.34
2017-08-19T01:51:42.660Z,63.34
2017-08-19T01:52:23.115Z,63.27
2017-08-19T01:53:03.572Z,63.24
2017-08-19T01:53:44.031Z,63.24
2017-08-19T01:54:24.481Z,63.34
2017-08-19T01:55:04.935Z,63.14
2017-08-19T01:55:45.388Z,63.24
2017-08-19T01:56:25.840Z,63.34
2017-08-19T01:57:06.294Z,63.24
2017-08-19T01:57:46.755Z,63.43
2017-08-19T01:58:27.203Z,63.43
2017-08-19T01:59:07.633Z,63.34
2017-08-19T01:59:48.078Z,63.43
2017-08-19T02:00:28.544Z,63.43
2017-08-19T02:01:08.989Z,63.43
2017-08-19T02:01:49.451Z,63.63
2017-08-19T02:02:29.896Z,63.63
2017-08-19T02:03:10.350Z,63.24
2017-08-19T02:03:50.799Z,63.14
2017-08-19T02:04:31.250Z,63.14
2017-08-19T02:05:11.704Z,63.43
2017-08-19T02:05:52.161Z,63.24
2017-08-19T02:06:32.616Z,63.34
2017-08-19T02:07:13.070Z,63.14
2017-08-19T02:07:53.529Z,63.34
2017-08-19T02:08:33.990Z,63.24
2017-08-19T02:09:14.447Z,63.43
2017-08-19T02:09:54.917Z,63.63
2017-08-19T02:10:35.376Z,63.24
2017-08-19T02:11:15.831Z,63.34
2017-08-19T02:11:56.308Z,63.34
2017-08-19T02:12:36.789Z,63.34
2017-08-19T02:13:17.238Z,63.43
2017-08-19T02:13:57.686Z,63.53
2017-08-19T02:14:38.133Z,63.14
2017-08-19T02:15:18.587Z,63.34
2017-08-19T02:15:59.049Z,63.34
2017-08-19T02:16:39.502Z,63.34
2017-08-19T02:17:19.957Z,63.24
2017-08-19T02:18:00.422Z,63.24
2017-08-19T02:18:40.897Z,63.34
2017-08-19T02:19:21.355Z,63.24
2017-08-19T02:20:01.813Z,63.63
2017-08-19T02:20:42.270Z,63.43
2017-08-19T02:21:22.739Z,63.43
2017-08-19T02:22:03.194Z,63.34
2017-08-19T02:22:43.725Z,63.34
2017-08-19T02:23:24.182Z,63.34
2017-08-19T02:24:04.643Z,63.34
2017-08-19T02:24:45.090Z,63.24
2017-08-19T02:25:25.549Z,63.63
2017-08-19T02:26:06.014Z,63.43
2017-08-19T02:26:46.479Z,63.43
2017-08-19T02:27:26.931Z,63.34
2017-08-19T02:28:07.389Z,63.34
2017-08-19T02:28:47.857Z,63.34
2017-08-19T02:29:28.322Z,63.24
2017-08-19T02:30:08.779Z,63.53
2017-08-19T02:30:49.238Z,63.34
2017-08-19T02:31:29.689Z,63.24
2017-08-19T02:32:10.142Z,63.14
2017-08-19T02:32:50.611Z,62.95
2017-08-19T02:33:31.058Z,63.14
2017-08-19T02:34:11.517Z,63.14
2017-08-19T02:34:51.970Z,63.14
2017-08-19T02:35:32.423Z,63.14
2017-08-19T02:36:12.878Z,63.05
2017-08-19T02:36:53.335Z,62.95
2017-08-19T02:37:33.785Z,62.85
2017-08-19T02:38:14.236Z,63.05
2017-08-19T02:38:54.693Z,62.85
2017-08-19T02:39:35.173Z,63.05
2017-08-19T02:40:15.611Z,62.95
2017-08-19T02:40:56.071Z,62.95
2017-08-19T02:41:36.523Z,63.24
2017-08-19T02:42:16.978Z,63.14
2017-08-19T02:42:57.432Z,63.24
2017-08-19T02:43:37.889Z,63.24
2017-08-19T02:44:18.342Z,63.14
2017-08-19T02:44:58.801Z,63.14
2017-08-19T02:45:39.248Z,63.43
2017-08-19T02:46:19.706Z,63.05
2017-08-19T02:47:00.171Z,63.24
2017-08-19T02:47:40.630Z,63.05
2017-08-19T02:48:21.087Z,63.24
2017-08-19T02:49:01.532Z,63.14
2017-08-19T02:49:42.003Z,63.34
2017-08-19T02:50:22.458Z,63.4
2017-08-19T02:51:02.922Z,63.34
2017-08-19T02:51:43.377Z,63.14
2017-08-19T02:52:23.912Z,63.34
2017-08-19T02:53:04.371Z,63.34
2017-08-19T02:53:44.831Z,63.11
2017-08-19T02:54:25.289Z,63.31
2017-08-19T02:55:05.743Z,63.4
2017-08-19T02:55:46.192Z,63.21
2017-08-19T02:56:26.652Z,63.21
2017-08-19T02:57:07.111Z,63.21
2017-08-19T02:57:47.568Z,63.11
2017-08-19T02:58:28.031Z,63.11
2017-08-19T02:59:08.482Z,63.4
2017-08-19T02:59:48.938Z,63.31
2017-08-19T03:00:29.433Z,63.02
2017-08-19T03:01:09.857Z,63.11
2017-08-19T03:01:50.319Z,63.31
2017-08-19T03:02:30.801Z,63.4
2017-08-19T03:03:11.267Z,63.4
2017-08-19T03:03:51.741Z,63.4
2017-08-19T03:04:32.202Z,63.4
2017-08-19T03:05:12.665Z,63.31
2017-08-19T03:05:53.112Z,63.4
2017-08-19T03:06:33.566Z,63.4
2017-08-19T03:07:14.022Z,63.4
2017-08-19T03:07:54.471Z,63.21
2017-08-19T03:08:34.934Z,63.31
2017-08-19T03:09:15.393Z,63.31
2017-08-19T03:09:55.844Z,63.08
2017-08-19T03:10:36.300Z,63.37
2017-08-19T03:11:16.759Z,63.76
2017-08-19T03:11:57.206Z,63.37
2017-08-19T03:12:37.656Z,63.08
2017-08-19T03:13:18.111Z,63.08
2017-08-19T03:13:58.564Z,63.08
2017-08-19T03:14:39.026Z,63.37
2017-08-19T03:15:19.472Z,63.4
2017-08-19T03:15:59.919Z,63.18
2017-08-19T03:16:40.372Z,63.08
2017-08-19T03:18:32.979Z,63.37
2017-08-19T03:19:13.434Z,63.21
2017-08-19T03:19:53.882Z,63.02
2017-08-19T03:20:34.333Z,62.92
2017-08-19T03:21:14.789Z,63.08
2017-08-19T03:21:55.245Z,63.02
2017-08-19T03:22:35.701Z,62.89
2017-08-19T03:23:16.166Z,62.89
2017-08-19T03:23:56.615Z,62.92
2017-08-19T03:24:37.064Z,63.02
2017-08-19T03:25:17.519Z,62.89
2017-08-19T03:25:57.976Z,63.11
2017-08-19T03:26:38.433Z,63.11
2017-08-19T03:27:18.888Z,63.11
2017-08-19T03:27:59.352Z,63.11
2017-08-19T03:28:39.806Z,63.18
2017-08-19T03:29:20.267Z,63.21
2017-08-19T03:30:00.716Z,63.02
2017-08-19T03:30:41.169Z,63.21
2017-08-19T03:31:21.625Z,63.11
2017-08-19T03:32:02.081Z,63.21
2017-08-19T03:32:42.537Z,63.11
2017-08-19T03:33:23.000Z,63.21
2017-08-19T03:34:03.452Z,63.21
2017-08-19T03:34:43.909Z,63.4
2017-08-19T03:35:24.365Z,63.31
2017-08-19T03:36:04.817Z,63.31
2017-08-19T03:36:45.276Z,63.21
2017-08-19T03:37:25.742Z,63.11
2017-08-19T03:38:06.195Z,63.11
2017-08-19T03:38:46.661Z,63.21
2017-08-19T03:39:27.111Z,62.73
2017-08-19T03:40:07.566Z,62.63
2017-08-19T03:40:48.029Z,63.5
2017-08-19T03:41:28.476Z,62.82
2017-08-19T03:42:08.924Z,63.02
2017-08-19T03:42:49.379Z,62.92
2017-08-19T03:43:29.831Z,62.82
2017-08-19T03:44:10.276Z,62.92
2017-08-19T03:44:50.739Z,62.92
2017-08-19T03:45:31.226Z,62.92
2017-08-19T03:46:11.664Z,63.02
2017-08-19T03:46:52.115Z,62.82
2017-08-19T03:47:32.591Z,62.92
2017-08-19T03:48:13.032Z,62.92
2017-08-19T03:48:53.484Z,62.92
2017-08-19T03:49:33.937Z,62.73
2017-08-19T03:50:14.393Z,62.82
2017-08-19T03:50:54.841Z,62.73
2017-08-19T03:51:35.303Z,62.92
2017-08-19T03:52:15.755Z,62.82
2017-08-19T03:52:56.206Z,62.92
2017-08-19T03:53:36.649Z,62.73
2017-08-19T03:54:17.106Z,62.73
2017-08-19T03:54:57.567Z,62.82
2017-08-19T03:55:38.022Z,62.82
2017-08-19T03:56:18.475Z,62.92
2017-08-19T03:56:58.934Z,63.4
2017-08-19T03:57:39.396Z,62.63
2017-08-19T03:58:19.855Z,63.31
2017-08-19T03:59:00.305Z,63.21
2017-08-19T03:59:40.755Z,63.21
2017-08-19T04:00:21.211Z,63.11
2017-08-19T04:01:01.669Z,63.11
2017-08-19T04:01:42.122Z,63.11
2017-08-19T04:02:22.570Z,63.21
2017-08-19T04:03:03.021Z,63.21
2017-08-19T04:03:43.473Z,63.21
2017-08-19T04:04:23.937Z,63.11
2017-08-19T04:05:04.395Z,63.21
2017-08-19T04:05:44.849Z,63.11
2017-08-19T04:06:25.303Z,62.92
2017-08-19T04:07:05.757Z,62.92
2017-08-19T04:07:46.211Z,62.73
2017-08-19T04:08:26.667Z,62.92
2017-08-19T04:09:07.112Z,63.5
2017-08-19T04:09:47.592Z,63.5
2017-08-19T04:10:28.037Z,62.82
2017-08-19T04:11:08.479Z,62.92
2017-08-19T04:11:48.943Z,62.73
2017-08-19T04:12:29.395Z,62.92
2017-08-19T04:13:09.863Z,62.92
2017-08-19T04:13:50.320Z,62.92
2017-08-19T04:14:30.790Z,62.82
2017-08-19T04:15:11.243Z,62.82
2017-08-19T04:15:51.693Z,63.6
2017-08-19T04:16:32.148Z,63.02
2017-08-19T04:17:12.602Z,63.31
2017-08-19T04:17:53.056Z,63.11
2017-08-19T04:18:33.505Z,63.31
2017-08-19T04:19:13.970Z,62.53
2017-08-19T04:19:54.427Z,62.63
2017-08-19T04:20:34.878Z,62.92
2017-08-19T04:21:15.323Z,62.53
2017-08-19T04:21:55.816Z,62.92
2017-08-19T04:22:36.267Z,62.73
2017-08-19T04:23:16.724Z,63.02
2017-08-19T04:23:57.174Z,62.73
2017-08-19T04:24:37.640Z,63.4
2017-08-19T04:25:18.106Z,62.92
2017-08-19T04:25:58.553Z,62.92
2017-08-19T04:26:39.542Z,62.92
2017-08-19T04:28:52.145Z,62.82
2017-08-19T04:29:32.580Z,62.73
2017-08-19T04:30:13.048Z,62.82
2017-08-19T04:30:53.496Z,62.89
2017-08-19T04:31:33.947Z,62.79
2017-08-19T04:32:14.393Z,62.82
2017-08-19T04:32:54.929Z,62.82
2017-08-19T04:33:35.319Z,62.73
2017-08-19T04:34:15.779Z,62.89
2017-08-19T04:34:56.235Z,62.6
2017-08-19T04:35:36.693Z,62.89
2017-08-19T04:36:17.141Z,62.92
2017-08-19T04:36:57.744Z,62.82
2017-08-19T04:37:38.177Z,62.92
2017-08-19T04:38:18.625Z,62.6
2017-08-19T04:38:59.078Z,62.82
2017-08-19T04:39:39.570Z,62.73
2017-08-19T04:40:20.023Z,62.73
2017-08-19T04:41:00.469Z,62.73
2017-08-19T04:41:40.930Z,62.63
2017-08-19T04:42:21.371Z,62.34
2017-08-19T04:43:01.826Z,62.63
2017-08-19T04:43:42.762Z,62.34
2017-08-19T04:45:30.310Z,62.34
2017-08-19T04:47:43.096Z,62.34
2017-08-19T04:48:23.536Z,62.24
2017-08-19T04:49:03.988Z,62.73
2017-08-19T04:49:45.116Z,62.53
2017-08-19T04:50:25.404Z,62.73
2017-08-19T04:51:05.853Z,62.63
2017-08-19T04:51:46.309Z,62.44
2017-08-19T04:52:26.760Z,62.63
2017-08-19T04:53:07.217Z,62.73
2017-08-19T04:53:47.666Z,62.63
2017-08-19T04:54:28.126Z,62.44
2017-08-19T04:55:08.574Z,62.34
2017-08-19T04:55:49.030Z,62.15
2017-08-19T04:56:29.477Z,62.34
2017-08-19T04:57:09.931Z,62.24
2017-08-19T04:57:50.379Z,62.24
2017-08-19T04:58:30.830Z,62.15
2017-08-19T04:59:11.299Z,62.34
2017-08-19T04:59:51.762Z,62.34
2017-08-19T05:00:32.206Z,62.34
2017-08-19T05:01:12.664Z,62.05
2017-08-19T05:01:53.112Z,62.15
2017-08-19T05:02:33.578Z,62.24
2017-08-19T05:03:14.036Z,62.34
2017-08-19T05:03:54.498Z,62.24
2017-08-19T05:04:34.953Z,62.05
2017-08-19T05:05:15.394Z,62.15
2017-08-19T05:05:55.887Z,61.95
2017-08-19T05:06:36.352Z,62.24
2017-08-19T05:07:16.807Z,62.24
2017-08-19T05:07:57.250Z,62.05
2017-08-19T05:08:37.709Z,61.95
2017-08-19T05:09:18.163Z,62.05
2017-08-19T05:09:58.623Z,61.95
2017-08-19T05:10:39.071Z,61.95
2017-08-19T05:11:19.540Z,61.95
2017-08-19T05:11:59.993Z,62.05
2017-08-19T05:12:40.449Z,61.86
2017-08-19T05:13:20.911Z,61.86
2017-08-19T05:14:01.368Z,61.95
2017-08-19T05:14:41.833Z,62.15
2017-08-19T05:15:22.281Z,62.15
2017-08-19T05:16:02.736Z,62.24
2017-08-19T05:16:43.190Z,62.24
2017-08-19T05:17:23.644Z,61.95
2017-08-19T05:18:04.105Z,62.05
2017-08-19T05:18:44.562Z,62.05
2017-08-19T05:19:25.056Z,62.05
2017-08-19T05:20:05.497Z,62.15
2017-08-19T05:20:45.957Z,62.24
2017-08-19T05:21:26.408Z,61.95
2017-08-19T05:22:06.861Z,62.34
2017-08-19T05:22:47.333Z,62.15
2017-08-19T05:23:27.787Z,61.95
2017-08-19T05:24:08.236Z,62.05
2017-08-19T05:24:48.677Z,62.05
2017-08-19T05:25:29.121Z,62.05
2017-08-19T05:26:09.587Z,61.86
2017-08-19T05:26:50.044Z,62.05
2017-08-19T05:27:30.482Z,62.05
2017-08-19T05:28:10.994Z,62.05
2017-08-19T05:28:51.459Z,62.15
2017-08-19T05:29:31.915Z,61.95
2017-08-19T05:30:12.374Z,61.95
2017-08-19T05:30:52.837Z,61.95
2017-08-19T05:31:33.296Z,62.05
2017-08-19T05:32:13.745Z,62.15
2017-08-19T05:32:54.197Z,62.34
2017-08-19T05:33:34.648Z,62.34
2017-08-19T05:34:15.100Z,62.63
2017-08-19T05:34:55.550Z,62.82
2017-08-19T05:35:36.007Z,62.34
2017-08-19T05:36:16.455Z,62.44
2017-08-19T05:36:56.912Z,62.53
2017-08-19T05:37:37.371Z,62.73
2017-08-19T05:38:17.828Z,62.44
2017-08-19T05:38:58.289Z,62.53
2017-08-19T05:39:38.745Z,62.63
2017-08-19T05:40:19.206Z,62.82
2017-08-19T05:40:59.665Z,62.82
2017-08-19T05:41:40.113Z,63.02
2017-08-19T05:42:20.581Z,62.92
2017-08-19T05:43:01.046Z,63.02
2017-08-19T05:43:41.509Z,63.02
2017-08-19T05:44:21.962Z,62.82
2017-08-19T05:45:02.415Z,62.82
2017-08-19T05:45:42.867Z,62.73
2017-08-19T05:46:23.358Z,63.02
2017-08-19T05:47:03.782Z,62.82
2017-08-19T05:47:44.218Z,62.92
2017-08-19T05:48:24.682Z,62.53
2017-08-19T05:49:05.135Z,62.85
2017-08-19T05:49:45.591Z,62.85
2017-08-19T05:50:26.029Z,62.82
2017-08-19T05:51:06.480Z,62.82
2017-08-19T05:51:46.931Z,62.92
2017-08-19T05:52:27.384Z,62.82
2017-08-19T05:53:07.843Z,62.82
2017-08-19T05:53:48.296Z,62.85
2017-08-19T05:54:28.748Z,62.92
2017-08-19T05:55:09.199Z,62.95
2017-08-19T05:55:49.654Z,62.56
2017-08-19T05:56:30.109Z,62.56
2017-08-19T05:57:10.580Z,62.76
2017-08-19T05:57:51.043Z,62.66
2017-08-19T05:58:31.490Z,62.82
2017-08-19T05:59:11.948Z,62.66
2017-08-19T05:59:52.413Z,62.63
2017-08-19T06:00:32.869Z,62.85
2017-08-19T06:01:13.334Z,62.56
2017-08-19T06:01:53.782Z,62.76
2017-08-19T06:02:34.240Z,62.66
2017-08-19T06:03:14.693Z,62.63
2017-08-19T06:03:55.178Z,62.56
2017-08-19T06:04:35.629Z,62.47
2017-08-19T06:05:16.154Z,62.76
2017-08-19T06:05:56.616Z,62.37
2017-08-19T06:06:37.065Z,62.56
2017-08-19T06:07:17.527Z,62.66
2017-08-19T06:07:57.995Z,62.76
2017-08-19T06:08:38.442Z,62.66
2017-08-19T06:09:18.888Z,62.47
2017-08-19T06:09:59.338Z,62.27
2017-08-19T06:10:39.803Z,62.08
2017-08-19T06:11:20.267Z,62.08
2017-08-19T06:12:00.709Z,62.18
2017-08-19T06:12:41.154Z,62.27
2017-08-19T06:13:21.605Z,62.08
2017-08-19T06:14:02.060Z,62.08
2017-08-19T06:14:42.521Z,61.98
2017-08-19T06:15:22.985Z,62.08
2017-08-19T06:16:03.436Z,62.08
2017-08-19T06:16:43.888Z,62.27
2017-08-19T06:17:24.335Z,62.27
2017-08-19T06:18:04.790Z,61.89
2017-08-19T06:18:45.240Z,61.89
2017-08-19T06:19:25.704Z,62.18
2017-08-19T06:20:06.165Z,61.98
2017-08-19T06:20:46.607Z,61.89
2017-08-19T06:21:27.057Z,62.18
2017-08-19T06:22:07.523Z,62.18
2017-08-19T06:22:47.943Z,62.08
2017-08-19T06:23:28.387Z,61.98
2017-08-19T06:24:08.855Z,62.08
2017-08-19T06:24:49.305Z,62.08
2017-08-19T06:25:29.786Z,61.98
2017-08-19T06:26:10.210Z,62.27
2017-08-19T06:26:50.750Z,62.08
2017-08-19T06:27:31.178Z,62.37
2017-08-19T06:28:11.647Z,62.08
2017-08-19T06:28:52.097Z,62.18
2017-08-19T06:29:32.528Z,62.27
2017-08-19T06:30:12.971Z,62.18
2017-08-19T06:30:53.413Z,62.18
2017-08-19T06:31:33.829Z,61.98
2017-08-19T06:32:14.261Z,62.27
2017-08-19T06:32:54.716Z,62.27
2017-08-19T06:33:35.181Z,62.24
2017-08-19T06:34:15.640Z,61.95
2017-08-19T06:34:56.113Z,62.34
2017-08-19T06:35:36.558Z,62.27
2017-08-19T06:36:16.992Z,62.15
2017-08-19T06:36:57.438Z,61.95
2017-08-19T06:37:37.860Z,61.95
2017-08-19T06:38:18.277Z,62.05
2017-08-19T06:38:58.681Z,62.15
2017-08-19T06:39:39.109Z,61.95
2017-08-19T06:40:19.492Z,61.95
2017-08-19T06:40:59.909Z,61.86
2017-08-19T06:41:40.321Z,61.76
2017-08-19T06:42:20.749Z,61.95
2017-08-19T06:43:01.155Z,61.76
2017-08-19T06:43:41.549Z,61.57
2017-08-19T06:44:21.970Z,61.86
2017-08-19T06:45:02.359Z,62.05
2017-08-19T06:45:42.836Z,62.15
2017-08-19T06:46:23.285Z,61.92
2017-08-19T06:47:03.732Z,62.12
2017-08-19T06:47:44.187Z,62.31
2017-08-19T06:48:24.648Z,62.21
2017-08-19T06:49:05.073Z,62.21
2017-08-19T06:49:45.468Z,62.12
2017-08-19T06:50:25.903Z,62.15
2017-08-19T06:51:06.355Z,61.73
2017-08-19T06:51:46.808Z,61.83
2017-08-19T06:52:27.268Z,61.63
2017-08-19T06:53:07.718Z,61.73
2017-08-19T06:53:48.165Z,61.63
2017-08-19T06:54:28.626Z,61.25
2017-08-19T06:55:09.080Z,61.25
2017-08-19T06:55:49.521Z,61.44
2017-08-19T06:56:29.968Z,61.54
2017-08-19T06:57:10.409Z,61.34
2017-08-19T06:57:50.948Z,61.54
2017-08-19T06:59:48.651Z,61.27
2017-08-19T07:00:29.096Z,61.57
2017-08-19T07:01:09.536Z,61.66
2017-08-19T07:01:49.998Z,61.37
2017-08-19T07:02:30.485Z,61.18
2017-08-19T07:03:10.907Z,60.79
2017-08-19T07:03:51.362Z,60.69
2017-08-19T07:04:31.806Z,60.99
2017-08-19T07:05:12.259Z,60.89
2017-08-19T07:05:52.700Z,61.18
2017-08-19T07:06:33.152Z,60.79
2017-08-19T07:07:13.601Z,60.89
2017-08-19T07:07:54.124Z,60.6
2017-08-19T07:08:34.578Z,60.5
2017-08-19T07:09:15.023Z,60.79
2017-08-19T07:09:55.496Z,60.41
2017-08-19T07:10:35.957Z,60.6
2017-08-19T07:11:16.419Z,60.79
2017-08-19T07:11:56.856Z,60.6
2017-08-19T07:12:37.306Z,60.6
2017-08-19T07:13:17.755Z,60.6
2017-08-19T07:13:58.198Z,60.6
2017-08-19T07:14:38.654Z,60.5
2017-08-19T07:15:19.114Z,60.31
2017-08-19T07:15:59.564Z,60.31
2017-08-19T07:16:40.016Z,60.21
2017-08-19T07:17:20.470Z,60.02
2017-08-19T07:18:00.936Z,60.02
2017-08-19T07:18:41.383Z,60.11
2017-08-19T07:19:21.836Z,60.11
2017-08-19T07:20:02.301Z,60.31
2017-08-19T07:20:42.749Z,59.92
2017-08-19T07:21:23.207Z,59.63
2017-08-19T07:22:03.665Z,59.83
2017-08-19T07:22:44.132Z,60.21
2017-08-19T07:23:24.593Z,59.73
2017-08-19T07:24:05.041Z,59.83
2017-08-19T07:24:45.501Z,59.73
2017-08-19T07:25:25.939Z,59.63
2017-08-19T07:26:06.397Z,59.63
2017-08-19T07:26:46.855Z,60.21
2017-08-19T07:27:27.311Z,60.11
2017-08-19T07:28:07.762Z,59.92
2017-08-19T07:28:48.217Z,59.92
2017-08-19T07:29:28.675Z,59.53
2017-08-19T07:30:09.144Z,59.53
2017-08-19T07:30:49.590Z,59.83
2017-08-19T07:31:30.041Z,59.63
2017-08-19T07:32:10.495Z,59.73
2017-08-19T07:32:51.013Z,59.44
2017-08-19T07:33:31.426Z,59.25
2017-08-19T07:34:11.871Z,59.05
2017-08-19T07:34:52.329Z,58.95
2017-08-19T07:35:32.776Z,58.86
2017-08-19T07:36:13.221Z,59.25
2017-08-19T07:36:53.666Z,59.15
2017-08-19T07:37:34.210Z,59.15
2017-08-19T07:38:14.637Z,58.95
2017-08-19T07:38:55.093Z,58.47
2017-08-19T07:39:35.543Z,58.4
2017-08-19T07:40:15.982Z,58.8
2017-08-19T07:40:56.430Z,58.6
2017-08-19T07:41:36.922Z,58.4
2017-08-19T07:42:17.342Z,58.4
2017-08-19T07:42:57.795Z,58.21
2017-08-19T07:43:38.258Z,58.31
2017-08-19T07:44:18.751Z,58.4
2017-08-19T07:44:59.353Z,58.4
2017-08-19T07:45:39.803Z,58.21
2017-08-19T07:47:52.732Z,57.95
2017-08-19T07:48:33.219Z,57.86
2017-08-19T07:49:13.669Z,57.86
2017-08-19T07:49:54.135Z,57.79
2017-08-19T07:50:34.583Z,57.69
2017-08-19T07:51:15.035Z,57.5
2017-08-19T07:51:55.481Z,57.4
2017-08-19T07:52:35.931Z,57.79
2017-08-19T07:53:16.396Z,57.2
2017-08-19T07:53:56.848Z,57.01
2017-08-19T07:54:37.294Z,56.82
2017-08-19T07:55:17.743Z,57.2
2017-08-19T07:55:58.200Z,57.53
2017-08-19T07:56:38.651Z,57.04
2017-08-19T07:57:19.111Z,57.04
2017-08-19T07:57:59.575Z,57.14
2017-08-19T07:58:40.036Z,56.56
2017-08-19T07:59:20.487Z,56.75
2017-08-19T08:00:00.945Z,56.65
2017-08-19T08:00:41.394Z,56.65
2017-08-19T08:01:21.859Z,56.59
2017-08-19T08:02:02.291Z,56.39
2017-08-19T08:02:42.743Z,56.07
2017-08-19T08:03:23.221Z,56.29
2017-08-19T08:04:03.650Z,56.36
2017-08-19T08:04:44.100Z,56.29
2017-08-19T08:05:24.541Z,56.2
2017-08-19T08:06:04.979Z,56.39
2017-08-19T08:06:45.435Z,56.49
2017-08-19T08:07:25.888Z,56.49
2017-08-19T08:08:06.341Z,56.1
2017-08-19T08:08:46.782Z,56.1
2017-08-19T08:09:27.232Z,56.49
2017-08-19T08:10:07.684Z,56.2
2017-08-19T08:10:48.160Z,56.1
2017-08-19T08:11:28.618Z,56.1
2017-08-19T08:12:09.074Z,56.49
2017-08-19T08:12:49.535Z,56.39
2017-08-19T08:13:29.988Z,56.39
2017-08-19T08:14:10.445Z,56.39
2017-08-19T08:14:50.972Z,56.29
2017-08-19T08:15:31.340Z,56.1
2017-08-19T08:16:11.798Z,56.2
2017-08-19T08:16:52.255Z,56.49
2017-08-19T08:17:32.710Z,55.81
2017-08-19T08:18:13.164Z,55.81
2017-08-19T08:18:53.622Z,55.71
2017-08-19T08:19:34.095Z,56.13
2017-08-19T08:20:14.566Z,55.71
2017-08-19T08:20:55.031Z,56.23
2017-08-19T08:21:35.488Z,56.1
2017-08-19T08:22:15.945Z,56.03
2017-08-19T08:22:56.399Z,56.03
2017-08-19T08:23:36.856Z,55.83
2017-08-19T08:24:17.309Z,55.74
2017-08-19T08:24:57.758Z,55.83
2017-08-19T08:25:38.210Z,55.93
2017-08-19T08:26:18.695Z,56.1
2017-08-19T08:26:59.126Z,55.83
2017-08-19T08:27:39.518Z,56.03
2017-08-19T08:28:19.973Z,55.71
2017-08-19T08:29:00.437Z,56.2
2017-08-19T08:29:40.901Z,56.2
2017-08-19T08:30:21.480Z,56.39
2017-08-19T08:31:01.930Z,56.49
2017-08-19T08:31:42.394Z,56.68
2017-08-19T08:32:22.850Z,56.59
2017-08-19T08:33:03.309Z,56.59
2017-08-19T08:33:43.766Z,56.49
2017-08-19T08:34:24.222Z,56.39
2017-08-19T08:35:04.728Z,56.2
2017-08-19T08:35:45.193Z,56.2
2017-08-19T08:36:26.423Z,56.2
2017-08-19T08:37:07.432Z,56.2
2017-08-19T08:37:48.026Z,56.49
2017-08-19T08:38:28.300Z,56.39
2017-08-19T08:39:08.709Z,56.49
2017-08-19T08:39:49.121Z,56.59
2017-08-19T08:40:29.554Z,56.49
2017-08-19T08:41:10.029Z,56.2
2017-08-19T08:41:50.439Z,55.83
2017-08-19T08:42:31.117Z,55.93
2017-08-19T08:43:11.693Z,55.93
2017-08-19T08:43:52.143Z,55.74
2017-08-19T08:44:32.560Z,56.03
2017-08-19T08:45:13.018Z,55.93
2017-08-19T08:45:53.464Z,56.13
2017-08-19T08:46:34.469Z,55.54
2017-08-19T08:47:14.865Z,55.64
2017-08-19T08:47:55.275Z,55.54
2017-08-19T08:48:35.699Z,55.64
2017-08-19T08:49:16.262Z,55.44
2017-08-19T08:49:56.750Z,55.93
2017-08-19T08:50:37.268Z,55.93